Warwick, Maryland
Current Conditions -  °F | °C
As of 6:51 PM on Friday 19 Dec 2014 (Local Time) from KILG Reporting Station
Clear Clear  
Wind Chill: 25°   Ceiling: Unl
Heat Index: 32°   Visibility: 10mi
Dew Point: 22°   Wind: 8mph
Humidity: 66%   Direction: 320°NW
Pressure: 30.17"   Gusts: NA
Location:  39.42°N, 75.78°W
Report Text: KILG 192351Z AUTO 32007KT 10SM CLR 00/M06 A3017 RMK AO2 SLP218 T00001056 10061 20000 51022
Loading
Personal Weather Stations






























Interactive Weather Map New forecast layout! Learn more

10-Day Weather Forecast

Advertisements
Track Severe Weather on mobile